Aviation Digital Data Service (ADDS)

Output produced by METARs form (1320 UTC 24 August 2019)
found at http://www.aviationweather.gov/metar/data/
 
Forecast for: GQNO (NOUAKCHOTT/OUMTO, MR)
Text: TAF GQNO 241100Z 2412/2518 27012KT 8000 BKN013
Forecast period: 1200 UTC 24 August 2019 to 1800 UTC 25 August 2019
Forecast type: FROM: standard forecast or significant change
Winds: from the W (270 degrees) at 14 MPH (12 knots; 6.2 m/s)
Visibility: 5 miles (8 km)
Ceiling: 1300 feet AGL
Clouds: broken clouds at 1300 feet AGL
Weather: no significant weather forecast for this period
Text: PROB30
Forecast period: 1500 to 2000 UTC 24 August 2019
Forecast type: TEMPORARY: The following changes expected for less than half the time period
Visibility: missing
Ceiling: at least 12,000 feet AGL
Clouds: scattered clouds at 3000 feet AGL
few clouds at 4000 feet AGL
Weather: -TSRA  (light rain associated with thunderstorm(s))
Text: TEMPO 2415/2420 -TSRA SCT030TCU FEW040CB
Forecast period: 0200 to 0800 UTC 25 August 2019
Forecast type: TEMPORARY: The following changes expected for less than half the time period
Winds: variable direction winds at 2 MPH (2 knots; 1.0 m/s)
Visibility: missing
Ceiling: unknown
Clouds: missing
Weather: no significant weather forecast for this period